createdAt,value
2023-04-09T00:05:49.105Z,100.00
2023-04-09T00:15:51.666Z,100.00
2023-04-09T00:25:53.950Z,100.00
2023-04-09T00:35:56.556Z,100.00
2023-04-09T00:46:00.276Z,100.00
2023-04-09T00:56:03.867Z,100.00
2023-04-09T01:06:16.651Z,100.00
2023-04-09T01:16:22.601Z,100.00
2023-04-09T01:26:54.889Z,100.00
2023-04-09T01:37:01.365Z,100.00
2023-04-09T01:47:04.491Z,100.00
2023-04-09T01:57:06.788Z,100.00
2023-04-09T02:07:26.258Z,100.00
2023-04-09T02:17:28.499Z,100.00
2023-04-09T02:27:30.880Z,100.00
2023-04-09T02:37:33.251Z,100.00
2023-04-09T02:47:35.654Z,100.00
2023-04-09T02:57:37.993Z,100.00
2023-04-09T03:07:40.178Z,100.00
2023-04-09T03:17:42.462Z,100.00
2023-04-09T03:27:44.858Z,100.00
2023-04-09T03:37:47.572Z,100.00
2023-04-09T03:47:49.954Z,100.00
2023-04-09T03:57:52.279Z,100.00
2023-04-09T04:07:55.418Z,100.00
2023-04-09T04:17:57.672Z,100.00
2023-04-09T04:28:00.111Z,100.00
2023-04-09T04:38:02.386Z,100.00
2023-04-09T04:48:04.911Z,100.00
2023-04-09T04:58:07.264Z,100.00
2023-04-09T05:08:09.592Z,100.00
2023-04-09T05:18:11.945Z,100.00
2023-04-09T05:28:14.475Z,100.00
2023-04-09T05:38:16.875Z,100.00
2023-04-09T05:48:19.942Z,100.00
2023-04-09T05:58:22.380Z,100.00
2023-04-09T06:08:24.874Z,100.00
2023-04-09T06:18:27.686Z,100.00
2023-04-09T06:28:30.193Z,100.00
2023-04-09T06:38:32.860Z,100.00
2023-04-09T06:48:35.492Z,100.00
2023-04-09T06:58:37.821Z,100.00
2023-04-09T07:08:40.234Z,100.00
2023-04-09T07:18:42.980Z,100.00
2023-04-09T07:28:45.799Z,100.00
2023-04-09T07:38:49.166Z,100.00
2023-04-09T07:48:51.856Z,100.00
2023-04-09T07:58:55.070Z,100.00
2023-04-09T08:08:57.925Z,100.00
2023-04-09T08:19:00.739Z,100.00
2023-04-09T08:29:03.175Z,100.00
2023-04-09T08:39:05.629Z,100.00
2023-04-09T08:49:10.000Z,100.00
2023-04-09T08:59:17.593Z,92.31
2023-04-09T09:09:19.954Z,90.17
2023-04-09T09:19:24.972Z,88.04
2023-04-09T09:29:28.609Z,83.30
2023-04-09T09:39:47.018Z,75.71
2023-04-09T09:49:53.052Z,65.61
2023-04-09T10:00:02.335Z,67.31
2023-04-09T10:10:07.925Z,65.67
2023-04-09T10:20:27.466Z,59.16
2023-04-09T10:30:34.095Z,55.90
2023-04-09T10:40:48.088Z,54.00
2023-04-09T10:50:52.987Z,52.35
2023-04-09T11:00:56.173Z,55.86
2023-04-09T11:11:02.220Z,54.88
2023-04-09T11:21:04.928Z,51.38
2023-04-09T11:31:07.634Z,49.74
2023-04-09T11:41:13.397Z,49.58
2023-04-09T11:51:16.154Z,50.49
2023-04-09T12:01:18.872Z,47.91
2023-04-09T12:11:21.354Z,44.76
2023-04-09T12:21:27.602Z,47.35
2023-04-09T12:31:30.301Z,45.27
2023-04-09T12:41:32.788Z,44.72
2023-04-09T12:51:35.531Z,46.70
2023-04-09T13:01:38.878Z,41.74
2023-04-09T13:11:42.771Z,39.08
2023-04-09T13:21:45.646Z,42.52
2023-04-09T13:31:48.278Z,40.95
2023-04-09T13:41:51.489Z,38.80
2023-04-09T13:51:54.171Z,38.38
2023-04-09T14:01:57.202Z,36.48
2023-04-09T14:11:59.931Z,38.61
2023-04-09T14:22:02.678Z,36.57
2023-04-09T14:32:05.191Z,38.79
2023-04-09T14:42:07.772Z,37.25
2023-04-09T14:52:10.353Z,34.36
2023-04-09T15:02:13.238Z,35.63
2023-04-09T15:12:15.939Z,38.39
2023-04-09T15:22:18.483Z,38.34
2023-04-09T15:32:21.884Z,37.63
2023-04-09T15:42:24.289Z,38.53
2023-04-09T15:52:27.370Z,39.41
2023-04-09T16:02:30.239Z,38.96
2023-04-09T16:12:32.752Z,38.83
2023-04-09T16:22:35.600Z,40.74
2023-04-09T16:32:38.280Z,39.88
2023-04-09T16:42:41.322Z,39.88
2023-04-09T16:52:44.639Z,41.57
2023-04-09T17:02:47.256Z,43.30
2023-04-09T17:12:50.969Z,43.37
2023-04-09T17:22:53.748Z,42.71
2023-04-09T17:32:56.492Z,43.83
2023-04-09T17:42:59.034Z,47.01
2023-04-09T17:53:02.093Z,48.16
2023-04-09T18:03:05.036Z,53.62
2023-04-09T18:13:07.854Z,54.10
2023-04-09T18:23:10.628Z,55.34
2023-04-09T18:33:14.837Z,59.59
2023-04-09T18:43:17.695Z,62.36
2023-04-09T18:53:20.432Z,68.06
2023-04-09T19:03:24.193Z,73.36
2023-04-09T19:13:26.921Z,77.05
2023-04-09T19:23:30.163Z,81.71
2023-04-09T19:33:32.721Z,84.27
2023-04-09T19:43:36.023Z,87.05
2023-04-09T19:53:40.449Z,92.15
2023-04-09T20:03:43.127Z,94.65
2023-04-09T20:13:47.437Z,100.00
2023-04-09T20:23:49.689Z,100.00
2023-04-09T20:33:51.982Z,100.00
2023-04-09T20:43:54.465Z,100.00
2023-04-09T20:53:58.388Z,100.00
2023-04-09T21:04:01.054Z,100.00
2023-04-09T21:14:04.440Z,100.00
2023-04-09T21:24:06.913Z,100.00
2023-04-09T21:34:09.800Z,100.00
2023-04-09T21:44:12.542Z,100.00
2023-04-09T21:54:15.262Z,100.00
2023-04-09T22:04:17.927Z,100.00
2023-04-09T22:14:22.204Z,100.00
2023-04-09T22:24:27.340Z,100.00
2023-04-09T22:34:29.745Z,100.00
2023-04-09T22:44:32.349Z,100.00
2023-04-09T22:54:34.895Z,100.00
2023-04-09T23:04:37.544Z,100.00
2023-04-09T23:14:39.857Z,100.00
2023-04-09T23:24:42.130Z,100.00
2023-04-09T23:34:44.473Z,100.00
2023-04-09T23:44:47.012Z,100.00
2023-04-09T23:54:53.641Z,100.00
